Unionville, MD (21792)

10:45 AM EST on February 14, 2016 (GMT -0500)
Solomon's Maze | | Change Station
CLOSE
Current Station
Personal Weather Station
Location: Mount Airy, MD
Elevation: 686 ft
Nearby Weather Stations
Active Advisory: Winter Storm Warning Active Notice: Local Storm Report

Elev 686 ft 39.44 °N, 77.15 °W | Updated 6 minutes ago

Clear
Clear
16.9 °F
Feels Like 17 °F
N
1.1
Wind Variable Wind from ENE

Today
High -- | Low -- °F
--% Chance of Precip.
Yesterday
High -- | Low -- °F
Precip. -- in
Pressure 30.59 in
Visibility 10.0 miles
Clouds Scattered Clouds 4200 ft
Windchill 17 °F
Dew Point 2 °F
Humidity 52%
Rainfall 0.00 in
Snow Depth Not available.
7:02 AM 5:43 PM
Waxing Crescent, 43% visible
METAR KFDK 141447Z 29006KT 10SM SCT042 M09/M16 A3059
Pressure 30.59 in
Visibility 10.0 miles
Clouds Scattered Clouds 4200 ft
Windchill 17 °F
Dew Point 2 °F
Humidity 52%
Rainfall 0.00 in
Snow Depth Not available.
7:02 AM 5:43 PM
Waxing Crescent, 43% visible
METAR KFDK 141447Z 29006KT 10SM SCT042 M09/M16 A3059

10-Day Weather Forecast

Almanac

Astronomy

Feb. 14, 2016 Rise Set
Actual Time
Civil Twilight
Nautical Twilight
Astronomical Twilight
Moon
Length of Visible Light
Length of Day
Tomorrow will be .
, % of the Moon is Illuminated

Today's Extremes

State Highs State Lows

Community

WunderPhotos

Upload Photos

1,892,802 photos uploaded!

WunderBlog® & News

Nearby

Air Quality

  Air Quality AQ Index Pollutant
Not available.

Snow Depth

Station Depth Elevation

Earthquake Activity

City Distance Mag. Time & Date
Minimum magnitude displayed is 2.5.

Coastal Water Temperatures

Place Temperature

Stations

Nearby Weather Stations

Station Location Temp. Windchill Dew Point Humidity Wind Precip. Elev Updated Type
                   

Watches & Warnings

Winter Storm Warning
Issued: 8:27 AM EST Feb. 14, 2016 – National Weather Service

... Winter Storm Warning remains in effect from 1 am Monday to
10 am EST Tuesday...
... Wind Chill Advisory is cancelled...

The National Weather Service in Baltimore MD/Washington has
cancelled the Wind Chill Advisory.

* Precipitation type... snow... sleet and freezing rain Sunday
night into Tuesday morning.

* Accumulation... 1 to 3 inches of snow and sleet. Up to a
quarter inch of ice from freezing rain.

* Timing... snow will develop between 1 and 3 am Monday morning.
Snow will continue through Monday before changing to sleet and
freezing rain Monday night. Precipitation will end Tuesday
afternoon.

* Winds... southeast around 5 to 10 mph.

* Temperatures... in the teens tonight... rising into the upper 20s
to lower 30s Monday into Tuesday.

* Impacts... snow and ice will cause slippery roads and travel
will be difficult.

Precautionary/preparedness actions...

A Winter Storm Warning means significant amounts of snow...
sleet... and ice are expected or occurring. Strong winds are also
possible. This will make travel very hazardous or impossible.